Akureyri, Iceland

1:21 PM GMT on November 28, 2014 (GMT +0000)
Akureyri | Change Station
CLOSE
Current Station
Airport
Location: Akureyri,
Elevation: 89 ft
Nearby Weather Stations

Elev 89 ft 65.66 °N, 18.07 °W | Updated 21 minutes ago

Clear
Clear
41 °F
Feels Like 39 °F
N
4
Wind Variable Wind from East

Today
High -- | Low -- °F
--% Chance of Precip.
Yesterday
High -- | Low -- °F
Precip. -- in
10:42 AM 3:16 PM
Waxing Crescent, 40% visible
Pressure 29.65 in
Visibility -9999.0 miles
Clouds
Windchill 39 °F
Dew Point 34 °F
Humidity 76%
Rainfall 0.00 in
Snow Depth Not available.
UV Not available.
Pollen Not available.
Air Quality Not available.
Flu Activity Not available.
METAR BIAR 281300Z 09003KT 080V240 CAVOK 05/01 Q1004 R01/350047

More Conditions Fewer Conditions

Pressure 29.65 in
Visibility -9999.0 miles
Clouds
Windchill 39 °F
Dew Point 34 °F
Humidity 76%
Rainfall 0.00 in
Snow Depth Not available.
UV Not available.
Pollen Not available.
Air Quality Not available.
Flu Activity Not available.
METAR BIAR 281300Z 09003KT 080V240 CAVOK 05/01 Q1004 R01/350047

More Conditions Fewer Conditions

10-Day Weather Forecast

Almanac

Astronomy

Nov. 28, 2014 Rise Set
Actual Time
Civil Twilight
Nautical Twilight
Astronomical Twilight
Moon
Length of Visible Light
Length of Day
Tomorrow will be .
, % of the Moon is Illuminated

Today's Extremes

Country Highs Country Lows

Community

WunderPhotos

Upload Photos

1,774,204 photos uploaded!

WunderBlogs® & News

Nearby

Air Quality

  Air Quality AQ Index Pollutant
Not available.

Snow Depth

Station Depth Elevation

Earthquake Activity

City Distance Mag. Time & Date
Minimum magnitude displayed is 2.5.

Coastal Water Temperatures

Place Temperature

Nearby Weather Stations